Time;durP1;ratioP1;P1;durP2;ratioP2;P2;SDS_P1;SDS_P2;PMS_P1;PMS_P2;Temp;Humidity;BMP_temperature;BMP_pressure;BME280_temperature;BME280_humidity;BME280_pressure;Samples;Min_cycle;Max_cycle;Signal;HPM_P1;HPM_P2
2022/05/06 04:01:26;;;;;;;6.23;3.37;;;4.00;96.30;;;;;;5466256;23;21083;-78
2022/05/06 04:03:52;;;;;;;8.10;3.70;;;4.30;96.30;;;;;;4933904;29;20419;-78
2022/05/06 04:06:17;;;;;;;4.37;3.17;;;4.70;96.30;;;;;;4917715;29;20227;-78
2022/05/06 04:08:43;;;;;;;5.13;4.00;;;5.40;96.30;;;;;;4918297;29;20207;-79
2022/05/06 04:11:10;;;;;;;5.27;3.70;;;5.80;96.30;;;;;;4911904;29;20198;-80
2022/05/06 04:13:35;;;;;;;3.10;2.70;;;6.20;96.30;;;;;;4899606;29;20231;-79
2022/05/06 04:16:04;;;;;;;4.43;2.60;;;6.20;96.30;;;;;;4902094;29;20412;-81
2022/05/06 04:18:30;;;;;;;5.80;3.20;;;6.40;96.30;;;;;;4903838;29;20209;-80
2022/05/06 04:23:39;;;;;;;4.60;3.63;;;6.40;96.30;;;;;;4921698;29;20184;-81
2022/05/06 04:26:06;;;;;;;16.47;4.20;;;6.70;96.30;;;;;;4901779;29;20817;-81
2022/05/06 04:28:33;;;;;;;4.00;2.90;;;7.10;96.30;;;;;;4906377;29;20207;-82
2022/05/06 04:30:59;;;;;;;3.03;2.73;;;7.90;96.30;;;;;;4922597;29;20960;-80
2022/05/06 04:33:26;;;;;;;3.30;2.70;;;8.50;96.30;;;;;;4921668;29;21003;-81
2022/05/06 04:35:53;;;;;;;4.60;2.93;;;8.90;96.30;;;;;;4904630;29;20426;-82
2022/05/06 04:38:19;;;;;;;4.77;3.07;;;9.50;96.30;;;;;;4903766;29;20427;-82
2022/05/06 04:45:55;;;;;;;5.80;3.07;;;9.10;96.30;;;;;;5308344;23;21024;-81
2022/05/06 04:48:21;;;;;;;4.57;2.40;;;9.10;96.30;;;;;;4958733;29;20458;-80
2022/05/06 04:50:47;;;;;;;3.77;2.53;;;9.40;96.30;;;;;;4958574;29;20839;-80
2022/05/06 04:53:14;;;;;;;8.03;2.70;;;9.80;96.30;;;;;;4961388;28;20600;-81
2022/05/06 04:55:48;;;;;;;3.60;2.67;;;10.10;96.30;;;;;;4942727;29;20423;-81
2022/05/06 04:58:14;;;;;;;7.50;2.60;;;9.80;96.30;;;;;;4958452;29;20938;-82
2022/05/06 05:00:40;;;;;;;3.93;2.97;;;9.50;96.30;;;;;;4959774;29;20945;-81
2022/05/06 05:03:05;;;;;;;2.80;2.37;;;9.50;96.30;;;;;;4942541;29;20450;-81
2022/05/06 05:05:31;;;;;;;4.57;3.00;;;9.20;96.30;;;;;;4942246;29;20183;-81
2022/05/06 05:07:57;;;;;;;3.00;2.70;;;8.90;96.30;;;;;;4942126;29;20203;-81
2022/05/06 05:10:23;;;;;;;4.97;3.13;;;8.70;96.30;;;;;;4942165;29;20542;-81
2022/05/06 05:12:49;;;;;;;5.07;3.37;;;8.40;96.30;;;;;;4941372;29;20183;-81
2022/05/06 05:15:17;;;;;;;3.10;2.80;;;8.30;96.30;;;;;;4941134;29;20434;-80
2022/05/06 05:17:47;;;;;;;7.03;3.40;;;8.00;96.30;;;;;;4940513;29;20281;-80
2022/05/06 05:20:14;;;;;;;3.50;2.90;;;8.00;96.30;;;;;;4941143;29;20426;-81
2022/05/06 05:22:39;;;;;;;4.60;2.77;;;8.10;96.30;;;;;;4958692;29;20553;-80
2022/05/06 05:25:06;;;;;;;3.97;2.90;;;8.20;96.30;;;;;;4958037;29;20451;-80
2022/05/06 05:27:32;;;;;;;6.67;3.47;;;8.20;96.30;;;;;;4957827;29;20295;-80
2022/05/06 05:29:59;;;;;;;5.30;3.20;;;8.60;96.30;;;;;;4941320;29;20491;-80
2022/05/06 05:32:25;;;;;;;2.90;2.60;;;8.80;96.30;;;;;;4958978;29;20214;-81
2022/05/06 05:34:51;;;;;;;3.73;3.00;;;9.20;96.30;;;;;;4959231;29;20418;-80
2022/05/06 05:37:17;;;;;;;3.40;2.50;;;9.10;96.30;;;;;;4958578;28;20510;-81
2022/05/06 05:39:43;;;;;;;2.83;2.30;;;9.40;96.30;;;;;;4941075;29;20189;-81
2022/05/06 05:42:08;;;;;;;7.60;2.93;;;9.50;96.30;;;;;;4940740;29;20837;-81
2022/05/06 05:50:04;;;;;;;4.13;2.93;;;9.80;96.30;;;;;;4959076;29;20922;-80
2022/05/06 05:52:30;;;;;;;6.80;3.40;;;9.90;96.30;;;;;;4941311;28;20438;-80
2022/05/06 05:54:55;;;;;;;3.57;2.70;;;10.40;96.30;;;;;;4946709;29;20424;-81
2022/05/06 05:57:21;;;;;;;5.43;2.67;;;10.90;96.30;;;;;;4922703;29;20176;-81
2022/05/06 05:59:47;;;;;;;7.57;2.73;;;11.20;96.30;;;;;;4949458;29;20187;-81
2022/05/06 06:02:13;;;;;;;4.73;2.60;;;11.40;96.30;;;;;;4952540;29;20257;-82
2022/05/06 06:04:39;;;;;;;6.90;3.00;;;11.50;96.30;;;;;;4957097;29;20419;-81
2022/05/06 06:07:05;;;;;;;6.27;2.57;;;11.50;96.30;;;;;;4935743;29;20211;-81
2022/05/06 06:09:32;;;;;;;4.00;2.60;;;11.40;96.30;;;;;;4959029;29;20422;-80
2022/05/06 06:11:57;;;;;;;5.20;3.07;;;11.40;96.30;;;;;;4959192;29;20191;-81
2022/05/06 06:14:23;;;;;;;3.27;2.43;;;11.20;96.30;;;;;;4960417;28;20418;-80
2022/05/06 06:16:50;;;;;;;3.00;2.60;;;11.10;96.30;;;;;;4954285;28;20175;-80
2022/05/06 06:19:16;;;;;;;7.53;2.80;;;11.30;96.30;;;;;;4956297;29;20183;-81
2022/05/06 06:21:42;;;;;;;3.30;2.67;;;11.40;96.30;;;;;;4936751;28;20443;-81
2022/05/06 06:24:07;;;;;;;10.63;3.10;;;11.50;96.30;;;;;;4926157;29;20431;-81
2022/05/06 06:26:33;;;;;;;3.70;2.53;;;12.40;96.30;;;;;;4923504;29;20420;-81
2022/05/06 06:28:58;;;;;;;6.10;2.70;;;12.90;96.30;;;;;;4958162;28;20202;-80
2022/05/06 06:31:24;;;;;;;4.60;3.40;;;13.00;96.30;;;;;;4959024;28;20600;-80
2022/05/06 06:33:50;;;;;;;10.77;6.23;;;13.50;96.30;;;;;;4959150;28;20593;-81
2022/05/06 06:36:15;;;;;;;22.80;12.50;;;13.90;96.30;;;;;;4976488;28;20257;-81
2022/05/06 06:38:41;;;;;;;25.13;12.97;;;14.00;96.30;;;;;;4976277;28;20205;-80
2022/05/06 06:41:06;;;;;;;14.67;8.50;;;15.00;96.30;;;;;;4948417;29;20205;-81
2022/05/06 06:43:32;;;;;;;10.20;4.97;;;15.00;96.30;;;;;;4940271;29;20727;-81
2022/05/06 06:45:57;;;;;;;11.70;5.80;;;14.00;96.30;;;;;;4956391;29;20187;-80
2022/05/06 06:48:26;;;;;;;12.03;3.03;;;14.10;96.30;;;;;;4956298;29;20191;-81
2022/05/06 06:50:55;;;;;;;5.30;3.10;;;14.70;96.30;;;;;;4956158;28;20245;-81
2022/05/06 06:53:21;;;;;;;5.33;2.70;;;14.60;96.30;;;;;;4956828;29;20866;-82
2022/05/06 06:55:47;;;;;;;6.87;2.70;;;14.80;96.30;;;;;;4957249;29;20419;-81
2022/05/06 06:58:12;;;;;;;5.20;2.60;;;15.20;96.30;;;;;;4939536;29;20179;-81
2022/05/06 07:00:38;;;;;;;5.90;2.93;;;15.60;96.30;;;;;;4956933;29;20213;-80
2022/05/06 07:03:04;;;;;;;6.53;3.17;;;15.40;96.30;;;;;;4959529;29;20186;-81
2022/05/06 07:05:30;;;;;;;4.43;2.33;;;15.40;96.30;;;;;;4956450;29;20179;-80
2022/05/06 07:13:40;;;;;;;4.80;2.57;;;17.20;95.20;;;;;;4935278;29;20412;-81
2022/05/06 07:16:05;;;;;;;13.43;2.70;;;17.50;93.70;;;;;;4936184;29;20916;-81
2022/05/06 07:18:31;;;;;;;5.30;2.60;;;18.00;95.90;;;;;;4973790;28;20170;-81
2022/05/06 07:20:56;;;;;;;4.60;2.70;;;17.70;92.00;;;;;;4958648;28;20198;-81
2022/05/06 07:23:23;;;;;;;3.87;2.80;;;17.40;93.40;;;;;;4958424;28;20193;-79
2022/05/06 07:25:48;;;;;;;3.97;2.47;;;17.80;96.20;;;;;;4977894;28;20175;-79
2022/05/06 07:28:14;;;;;;;8.53;2.50;;;17.80;93.80;;;;;;4976915;28;20511;-80
2022/05/06 07:30:39;;;;;;;6.93;2.67;;;17.40;93.30;;;;;;4976297;28;20557;-80
2022/05/06 07:33:05;;;;;;;7.00;2.97;;;17.80;94.90;;;;;;4957839;28;20183;-80
2022/05/06 07:35:30;;;;;;;6.57;2.80;;;17.90;90.10;;;;;;4973467;28;20170;-80
2022/05/06 07:37:56;;;;;;;6.70;2.67;;;17.30;90.00;;;;;;4959074;29;20185;-81
2022/05/06 07:40:21;;;;;;;6.23;2.30;;;17.40;90.60;;;;;;4953661;29;20178;-81
2022/05/06 07:42:50;;;;;;;4.40;2.90;;;16.70;89.80;;;;;;4960155;29;20647;-80
2022/05/06 07:45:16;;;;;;;7.70;3.30;;;17.00;91.10;;;;;;4942894;29;20216;-80
2022/05/06 07:47:42;;;;;;;6.80;3.10;;;16.80;91.80;;;;;;4942096;29;20454;-80
2022/05/06 07:50:07;;;;;;;7.80;2.97;;;16.70;91.10;;;;;;4935130;29;20238;-80
2022/05/06 07:52:33;;;;;;;5.57;3.30;;;16.90;91.60;;;;;;4942045;29;20793;-80
2022/05/06 07:54:58;;;;;;;4.40;3.07;;;17.10;92.70;;;;;;4936900;29;20194;-81
2022/05/06 07:57:24;;;;;;;5.33;3.00;;;17.20;90.10;;;;;;4940839;29;20211;-81
2022/05/06 07:59:49;;;;;;;3.87;2.60;;;17.00;90.30;;;;;;4958596;29;20546;-81
2022/05/06 08:04:59;;;;;;;9.50;3.17;;;17.20;91.30;;;;;;4959171;29;20190;-81
2022/05/06 08:07:24;;;;;;;6.30;2.93;;;17.20;90.90;;;;;;4958971;29;20466;-79
2022/05/06 08:09:50;;;;;;;8.63;3.80;;;17.00;91.40;;;;;;4959469;29;20203;-79
2022/05/06 08:12:15;;;;;;;6.70;3.67;;;16.80;92.60;;;;;;4942696;29;20198;-81
2022/05/06 08:14:42;;;;;;;6.70;3.20;;;16.60;93.40;;;;;;4942728;29;20175;-81
2022/05/06 08:17:08;;;;;;;11.73;3.53;;;16.50;94.30;;;;;;4966062;28;20181;-81
2022/05/06 08:19:33;;;;;;;8.43;3.60;;;16.30;94.60;;;;;;4979226;28;20410;-80
2022/05/06 08:21:59;;;;;;;7.90;3.80;;;16.40;94.20;;;;;;4980267;28;20264;-80
2022/05/06 08:24:24;;;;;;;8.10;3.60;;;16.30;92.00;;;;;;4959856;28;20214;-79
2022/05/06 08:26:50;;;;;;;4.63;3.33;;;16.30;94.10;;;;;;4948107;29;20198;-80
2022/05/06 08:29:16;;;;;;;7.97;3.87;;;16.90;96.30;;;;;;4961035;29;20243;-81
2022/05/06 08:31:42;;;;;;;14.73;3.60;;;17.10;92.60;;;;;;4942987;29;20233;-79
2022/05/06 08:34:10;;;;;;;8.50;3.23;;;17.30;93.30;;;;;;4959428;29;20175;-80
2022/05/06 08:36:37;;;;;;;4.10;3.70;;;17.80;92.10;;;;;;4955026;29;20618;-79
2022/05/06 08:39:07;;;;;;;17.03;4.50;;;17.00;89.60;;;;;;4944135;29;20418;-80
2022/05/06 08:41:33;;;;;;;7.03;4.10;;;16.90;94.20;;;;;;4937269;29;20446;-80
2022/05/06 08:50:50;;;;;;;8.70;4.00;;;17.40;95.10;;;;;;4958364;29;20429;-80
2022/05/06 08:52:21;;;;;;;8.50;3.77;;;17.90;93.00;;;;;;4966608;28;20448;-81
2022/05/06 08:54:46;;;;;;;8.73;4.00;;;17.60;92.00;;;;;;4977819;28;20418;-81
2022/05/06 08:57:12;;;;;;;6.90;3.87;;;17.70;92.40;;;;;;4947319;28;20798;-82
2022/05/06 08:59:38;;;;;;;10.53;3.70;;;18.30;92.50;;;;;;4918944;29;20196;-81
2022/05/06 09:02:03;;;;;;;11.77;4.50;;;18.90;91.80;;;;;;4935657;29;20212;-82
2022/05/06 09:04:29;;;;;;;9.63;4.43;;;19.30;93.00;;;;;;4917971;29;20187;-81
2022/05/06 09:07:20;;;;;;;22.37;4.57;;;19.40;87.80;;;;;;4934929;29;20230;-81
2022/05/06 09:10:09;;;;;;;9.50;4.40;;;19.60;87.10;;;;;;4917497;29;20438;-81
2022/05/06 09:12:46;;;;;;;6.23;4.27;;;19.90;88.80;;;;;;4934884;29;20435;-81
2022/05/06 09:18:02;;;;;;;8.50;4.80;;;18.90;84.70;;;;;;4939683;29;20499;-81
2022/05/06 09:20:28;;;;;;;7.30;4.00;;;19.70;87.10;;;;;;4938498;29;20411;-81
2022/05/06 09:22:56;;;;;;;9.20;4.50;;;19.90;89.30;;;;;;4938354;29;20415;-81
2022/05/06 09:25:39;;;;;;;7.47;3.87;;;19.90;88.30;;;;;;4921124;29;20847;-81
2022/05/06 09:28:06;;;;;;;11.10;3.63;;;19.30;84.40;;;;;;4938206;29;20454;-81
2022/05/06 09:30:33;;;;;;;4.37;2.63;;;18.00;84.50;;;;;;4938692;29;20411;-81
2022/05/06 09:32:59;;;;;;;6.77;3.67;;;17.70;84.60;;;;;;4922750;29;20438;-80
2022/05/06 09:35:27;;;;;;;7.67;3.40;;;17.20;85.00;;;;;;4938744;29;20915;-82
2022/05/06 09:37:52;;;;;;;6.87;2.77;;;17.10;85.70;;;;;;4924102;29;20271;-81
2022/05/06 09:40:20;;;;;;;9.03;2.83;;;16.90;87.60;;;;;;4921417;29;20515;-81
2022/05/06 09:42:55;;;;;;;5.03;3.33;;;17.80;86.00;;;;;;4937887;29;20180;-81
2022/05/06 09:45:38;;;;;;;6.37;3.50;;;18.40;83.10;;;;;;4923582;29;20434;-81
2022/05/06 09:48:05;;;;;;;8.77;3.37;;;18.00;80.80;;;;;;4938830;29;20490;-81
2022/05/06 09:50:32;;;;;;;5.10;2.90;;;17.80;81.80;;;;;;4938266;29;20458;-81
2022/05/06 09:53:02;;;;;;;9.57;2.60;;;17.70;80.50;;;;;;4920658;29;20486;-81
2022/05/06 09:55:28;;;;;;;15.57;3.33;;;17.20;80.90;;;;;;4938016;29;20471;-80
2022/05/06 09:57:56;;;;;;;9.63;3.30;;;18.20;86.90;;;;;;4937747;29;20415;-81
2022/05/06 10:00:22;;;;;;;6.13;3.07;;;19.00;86.00;;;;;;4921500;29;20430;-80
2022/05/06 10:02:47;;;;;;;6.47;3.40;;;18.90;86.50;;;;;;4923273;29;20419;-80
2022/05/06 10:05:13;;;;;;;13.03;3.70;;;18.70;86.30;;;;;;4923714;29;20179;-80
2022/05/06 10:07:43;;;;;;;7.67;2.67;;;19.00;86.90;;;;;;4921970;29;20671;-80
2022/05/06 10:10:15;;;;;;;6.87;3.13;;;19.60;81.50;;;;;;4938891;29;20207;-79
2022/05/06 10:12:45;;;;;;;9.53;2.80;;;20.40;88.70;;;;;;4937782;29;20396;-82
2022/05/06 10:15:13;;;;;;;3.83;3.00;;;21.70;79.10;;;;;;4921993;29;20438;-81
2022/05/06 10:17:48;;;;;;;7.40;3.40;;;21.20;82.50;;;;;;4922289;29;20427;-80
2022/05/06 10:23:15;;;;;;;16.13;3.90;;;20.60;78.30;;;;;;4936575;29;20919;-81
2022/05/06 10:25:41;;;;;;;4.80;3.60;;;21.50;77.90;;;;;;4919869;29;20430;-80
2022/05/06 10:44:02;;;;;;;5.37;3.13;;;20.90;83.00;;;;;;6024668;23;20416;-80
2022/05/06 10:46:37;;;;;;;6.03;3.23;;;22.00;81.00;;;;;;4974768;28;20449;-79
2022/05/06 10:49:33;;;;;;;4.50;2.80;;;21.60;71.70;;;;;;4974426;28;20465;-79
2022/05/06 10:52:24;;;;;;;7.43;2.93;;;22.00;75.70;;;;;;4974575;28;20801;-81
2022/05/06 10:55:00;;;;;;;10.33;3.70;;;22.00;76.60;;;;;;4957673;28;20792;-81
2022/05/06 10:57:44;;;;;;;4.20;3.30;;;21.20;76.20;;;;;;4974734;28;20890;-81
2022/05/06 11:00:10;;;;;;;5.37;3.50;;;21.30;84.20;;;;;;4974807;28;20409;-81
2022/05/06 11:02:38;;;;;;;5.40;3.30;;;21.50;82.20;;;;;;4953497;29;20996;-81
2022/05/06 11:05:04;;;;;;;8.77;3.07;;;21.00;81.60;;;;;;4955297;29;20170;-81
2022/05/06 11:07:32;;;;;;;7.10;3.33;;;20.00;77.70;;;;;;4960942;28;21047;-81
2022/05/06 11:09:58;;;;;;;6.33;3.07;;;19.90;77.80;;;;;;4957260;28;20430;-81
2022/05/06 11:12:35;;;;;;;5.30;3.03;;;19.50;78.10;;;;;;4972982;28;20426;-81
2022/05/06 11:15:03;;;;;;;6.97;4.17;;;19.30;78.90;;;;;;4945433;29;20179;-80
2022/05/06 11:17:31;;;;;;;10.03;3.20;;;19.50;76.50;;;;;;4954858;29;20473;-80
2022/05/06 11:19:57;;;;;;;9.53;3.63;;;19.40;77.10;;;;;;4955199;28;20505;-80
2022/05/06 11:22:25;;;;;;;5.87;3.20;;;19.70;80.50;;;;;;4937581;29;20435;-80
2022/05/06 11:25:03;;;;;;;16.83;3.30;;;20.80;82.20;;;;;;4937707;29;20430;-80
2022/05/06 11:27:29;;;;;;;4.60;3.60;;;21.40;79.00;;;;;;4954575;29;20544;-80
2022/05/06 11:29:57;;;;;;;4.53;3.70;;;21.90;82.00;;;;;;4954985;29;20468;-81
2022/05/06 11:32:24;;;;;;;10.67;2.90;;;22.70;86.40;;;;;;4937799;29;20286;-82
2022/05/06 11:35:02;;;;;;;10.97;3.23;;;22.30;76.10;;;;;;4967067;28;20536;-81
2022/05/06 11:37:34;;;;;;;5.90;3.37;;;20.80;76.10;;;;;;4973582;28;20416;-80
2022/05/06 11:42:43;;;;;;;4.40;3.10;;;18.10;77.50;;;;;;4974395;28;20521;-81
2022/05/06 11:48:12;;;;;;;5.93;3.00;;;18.00;81.00;;;;;;4973294;28;20293;-80
2022/05/06 11:50:40;;;;;;;4.53;3.20;;;19.10;80.20;;;;;;4973366;28;20429;-80
2022/05/06 11:53:11;;;;;;;6.10;2.90;;;20.00;77.20;;;;;;4973461;28;20418;-80
2022/05/06 11:55:40;;;;;;;8.40;3.33;;;20.10;77.90;;;;;;4973380;28;20445;-80
2022/05/06 11:58:07;;;;;;;6.57;3.67;;;20.90;73.80;;;;;;4972835;28;20836;-80
2022/05/06 12:00:33;;;;;;;8.87;3.57;;;21.00;73.20;;;;;;4973300;28;20421;-81
2022/05/06 12:03:04;;;;;;;6.03;2.53;;;21.20;80.30;;;;;;4973315;28;20410;-80
2022/05/06 12:05:30;;;;;;;11.13;3.23;;;20.30;79.70;;;;;;4956074;28;20433;-78
2022/05/06 12:07:55;;;;;;;6.93;2.67;;;19.50;80.40;;;;;;4973117;28;20864;-79
2022/05/06 12:10:29;;;;;;;4.70;3.30;;;18.90;82.30;;;;;;4973256;28;20414;-80
2022/05/06 12:13:10;;;;;;;6.97;3.00;;;18.90;82.60;;;;;;4973351;28;20205;-79
2022/05/06 12:15:38;;;;;;;3.00;2.43;;;19.50;84.60;;;;;;4972987;28;20394;-80
2022/05/06 12:18:17;;;;;;;7.77;3.50;;;20.20;79.30;;;;;;4955493;28;20425;-79
2022/05/06 12:20:43;;;;;;;8.83;3.67;;;20.60;85.50;;;;;;4972582;28;20588;-79
2022/05/06 12:23:10;;;;;;;3.53;2.97;;;21.60;82.70;;;;;;4963999;28;20445;-79
2022/05/06 12:25:40;;;;;;;4.17;2.77;;;22.10;75.80;;;;;;4957212;28;20929;-79
2022/05/06 12:28:17;;;;;;;4.53;2.90;;;22.80;77.70;;;;;;4936472;29;20473;-79
2022/05/06 12:30:44;;;;;;;11.80;2.97;;;23.40;72.80;;;;;;4936614;29;20508;-78
2022/05/06 12:33:15;;;;;;;7.10;2.80;;;23.80;75.70;;;;;;4954146;29;20763;-79
2022/05/06 12:36:00;;;;;;;6.60;2.90;;;22.00;69.20;;;;;;4953891;29;20410;-80
2022/05/06 12:38:47;;;;;;;7.47;3.40;;;21.90;81.00;;;;;;4953988;28;20428;-79
2022/05/06 12:41:34;;;;;;;4.10;2.73;;;21.10;78.20;;;;;;4962769;28;20454;-78
2022/05/06 12:44:18;;;;;;;7.43;2.53;;;20.60;77.00;;;;;;4953619;29;20426;-79
2022/05/06 12:46:44;;;;;;;5.93;3.03;;;20.00;75.40;;;;;;4972149;28;20468;-78
2022/05/06 12:51:54;;;;;;;5.23;3.03;;;19.40;75.40;;;;;;4976909;28;20553;-78
2022/05/06 12:54:21;;;;;;;4.17;2.43;;;19.10;75.80;;;;;;4976667;28;20503;-77
2022/05/06 12:56:46;;;;;;;6.63;2.70;;;18.90;75.10;;;;;;4975130;28;20178;-78
2022/05/06 12:59:12;;;;;;;4.17;3.13;;;18.80;75.60;;;;;;4956995;29;20418;-78
2022/05/06 13:01:39;;;;;;;5.17;3.20;;;19.30;74.70;;;;;;4957362;28;20761;-78
2022/05/06 13:04:04;;;;;;;4.80;3.07;;;20.00;76.70;;;;;;4957294;29;20197;-78
2022/05/06 13:06:31;;;;;;;4.83;2.80;;;19.90;76.10;;;;;;4939961;29;20914;-78
2022/05/06 13:08:56;;;;;;;6.97;3.30;;;19.90;74.00;;;;;;4956929;29;20198;-79
2022/05/06 13:11:22;;;;;;;8.03;2.70;;;20.30;77.70;;;;;;4957151;28;20430;-78
2022/05/06 13:13:47;;;;;;;4.03;2.80;;;20.40;82.60;;;;;;4975064;28;20716;-78
2022/05/06 13:16:13;;;;;;;5.87;3.00;;;19.60;82.40;;;;;;4976406;28;20178;-78
2022/05/06 13:18:40;;;;;;;11.93;3.33;;;19.40;82.80;;;;;;4958663;28;20178;-77
2022/05/06 13:21:05;;;;;;;6.00;3.30;;;20.40;85.40;;;;;;4976177;28;20197;-78
2022/05/06 13:23:31;;;;;;;9.03;3.07;;;21.20;81.50;;;;;;4976255;28;20485;-78
2022/05/06 13:25:57;;;;;;;9.63;2.90;;;21.20;78.60;;;;;;4970411;28;20265;-79
2022/05/06 13:28:23;;;;;;;4.40;2.73;;;21.20;75.30;;;;;;4975628;28;20213;-79
2022/05/06 13:30:48;;;;;;;6.23;2.60;;;21.10;74.80;;;;;;4976134;28;20221;-79
2022/05/06 13:33:14;;;;;;;6.47;3.17;;;21.40;83.30;;;;;;4975138;28;20186;-79
2022/05/06 13:35:39;;;;;;;7.60;3.43;;;21.90;78.00;;;;;;4956696;29;20194;-79
2022/05/06 13:38:05;;;;;;;3.60;2.90;;;22.30;76.30;;;;;;4956393;29;20229;-78
2022/05/06 13:40:31;;;;;;;6.47;3.10;;;21.90;71.50;;;;;;4939273;29;20788;-79
2022/05/06 13:42:56;;;;;;;6.40;3.10;;;21.70;75.90;;;;;;4956390;29;20314;-77
2022/05/06 13:45:22;;;;;;;7.40;3.23;;;21.70;75.80;;;;;;4957655;28;20234;-78
2022/05/06 13:47:47;;;;;;;16.07;2.70;;;21.40;74.60;;;;;;4956020;29;20238;-77
2022/05/06 13:50:13;;;;;;;7.27;3.17;;;21.40;77.00;;;;;;4962707;28;20178;-79
2022/05/06 13:52:38;;;;;;;4.10;3.37;;;20.70;74.90;;;;;;4975771;28;20252;-79
2022/05/06 13:55:06;;;;;;;6.07;3.70;;;19.90;76.80;;;;;;4973911;28;20177;-80
2022/05/06 14:00:18;;;;;;;2.87;2.67;;;19.90;71.90;;;;;;4956066;28;20454;-79
2022/05/06 14:02:44;;;;;;;8.97;3.03;;;19.60;73.20;;;;;;4956311;28;20418;-78
2022/05/06 14:05:10;;;;;;;4.07;2.80;;;19.30;73.70;;;;;;4956215;29;20426;-79
2022/05/06 14:07:35;;;;;;;4.37;2.90;;;19.70;76.30;;;;;;4955869;29;20461;-78
2022/05/06 14:10:02;;;;;;;4.03;2.80;;;19.60;80.30;;;;;;4956007;29;20407;-79
2022/05/06 14:12:28;;;;;;;16.43;6.23;;;19.70;78.10;;;;;;4955932;29;20187;-78
2022/05/06 14:14:54;;;;;;;6.43;2.70;;;19.80;74.10;;;;;;4956063;29;20421;-79
2022/05/06 14:17:20;;;;;;;3.43;2.63;;;19.60;73.70;;;;;;4955868;29;20183;-79
2022/05/06 14:19:46;;;;;;;10.13;3.30;;;19.20;73.20;;;;;;4956023;29;20183;-80
2022/05/06 14:22:11;;;;;;;5.40;2.53;;;19.60;75.60;;;;;;4955486;29;20278;-80
2022/05/06 14:24:37;;;;;;;4.67;2.93;;;20.00;80.80;;;;;;4955839;29;20885;-80
2022/05/06 14:27:05;;;;;;;6.80;2.73;;;20.50;80.00;;;;;;4955963;29;20565;-78
2022/05/06 14:29:30;;;;;;;5.13;3.10;;;20.50;73.00;;;;;;4938467;29;20201;-79
2022/05/06 14:31:56;;;;;;;4.73;2.77;;;20.00;72.50;;;;;;4955761;29;20934;-79
2022/05/06 14:34:21;;;;;;;3.27;2.87;;;19.50;74.90;;;;;;4948274;28;20232;-80
2022/05/06 14:36:47;;;;;;;8.30;3.37;;;19.60;74.60;;;;;;4974831;28;20178;-77
2022/05/06 14:39:12;;;;;;;6.83;2.70;;;19.40;74.40;;;;;;4968124;28;20213;-82
2022/05/06 14:41:38;;;;;;;4.37;2.60;;;18.90;75.30;;;;;;4964653;28;20670;-77
2022/05/06 14:44:04;;;;;;;7.40;3.00;;;18.40;74.10;;;;;;4974688;28;20178;-78
2022/05/06 14:46:29;;;;;;;3.70;2.40;;;18.20;77.60;;;;;;4957316;28;20285;-77
2022/05/06 14:48:55;;;;;;;4.00;2.70;;;18.50;75.60;;;;;;4974284;28;20289;-78
2022/05/06 14:51:20;;;;;;;3.27;2.97;;;18.90;80.40;;;;;;4974657;28;20194;-77
2022/05/06 14:53:47;;;;;;;4.67;2.70;;;19.00;79.60;;;;;;4974614;28;20220;-78
2022/05/06 14:56:13;;;;;;;5.80;3.00;;;19.20;81.60;;;;;;4974170;28;20173;-77
2022/05/06 14:58:39;;;;;;;6.70;3.00;;;19.60;80.50;;;;;;4944814;29;20853;-77
2022/05/06 15:01:06;;;;;;;4.80;2.53;;;20.00;75.60;;;;;;4963766;28;20282;-78
2022/05/06 15:03:31;;;;;;;5.97;2.83;;;19.90;75.90;;;;;;4972191;28;20413;-77
2022/05/06 15:05:57;;;;;;;8.63;3.53;;;19.10;77.10;;;;;;4968940;28;20782;-78
2022/05/06 15:08:22;;;;;;;3.67;2.83;;;18.80;78.70;;;;;;4962699;28;20202;-79
2022/05/06 15:10:48;;;;;;;3.90;3.50;;;18.70;81.10;;;;;;4960808;28;20202;-79
2022/05/06 15:13:13;;;;;;;6.20;3.00;;;18.60;83.60;;;;;;4974371;28;20592;-77
2022/05/06 15:15:39;;;;;;;9.80;2.60;;;18.50;84.50;;;;;;4974374;28;20174;-78
2022/05/06 15:20:50;;;;;;;4.53;2.40;;;18.40;81.40;;;;;;4955065;29;20209;-78
2022/05/06 15:23:17;;;;;;;6.80;3.30;;;18.30;82.10;;;;;;4954900;29;20505;-79
2022/05/06 15:25:42;;;;;;;4.10;2.50;;;18.40;83.90;;;;;;4955195;29;20179;-79
2022/05/06 15:28:08;;;;;;;5.40;2.70;;;18.40;80.40;;;;;;4953104;29;20903;-78
2022/05/06 15:30:33;;;;;;;4.60;2.80;;;18.40;79.30;;;;;;4973127;28;20654;-79
2022/05/06 15:32:59;;;;;;;6.90;2.90;;;18.00;82.90;;;;;;4974124;28;20198;-78
2022/05/06 15:35:25;;;;;;;6.27;2.73;;;17.70;80.10;;;;;;4974096;28;20174;-78
2022/05/06 15:37:51;;;;;;;4.33;2.87;;;17.60;84.60;;;;;;4956164;28;20178;-77
2022/05/06 15:40:16;;;;;;;11.73;3.10;;;17.70;84.10;;;;;;4974084;28;20425;-77
2022/05/06 15:42:42;;;;;;;9.17;2.70;;;17.90;81.30;;;;;;4991389;28;20198;-78
2022/05/06 15:45:07;;;;;;;4.30;3.00;;;18.20;80.30;;;;;;4998108;28;20213;-80
2022/05/06 15:47:33;;;;;;;4.90;2.70;;;18.10;85.10;;;;;;4997580;28;20218;-81
2022/05/06 15:49:58;;;;;;;7.80;3.00;;;18.10;83.30;;;;;;4988924;28;20179;-79
2022/05/06 15:52:24;;;;;;;9.00;5.13;;;18.30;84.10;;;;;;4966553;28;20211;-78
2022/05/06 15:54:49;;;;;;;6.00;3.10;;;18.10;82.70;;;;;;4955718;29;20194;-77
2022/05/06 15:57:15;;;;;;;6.60;3.00;;;18.20;84.50;;;;;;4955623;29;20178;-77
2022/05/06 15:59:40;;;;;;;7.43;2.70;;;18.10;82.80;;;;;;4937522;29;20179;-78
2022/05/06 16:02:06;;;;;;;5.57;2.43;;;18.00;81.70;;;;;;4938544;29;20195;-79
2022/05/06 16:04:31;;;;;;;7.00;2.50;;;18.00;84.40;;;;;;4956177;29;20618;-80
2022/05/06 16:06:57;;;;;;;8.80;3.10;;;18.00;81.20;;;;;;4958952;28;20190;-79
2022/05/06 16:09:25;;;;;;;7.83;2.53;;;17.80;80.70;;;;;;4964246;28;20222;-78
2022/05/06 16:11:50;;;;;;;4.30;2.57;;;17.80;85.30;;;;;;4974638;28;20186;-77
2022/05/06 16:15:16;;;;;;;8.40;2.70;;;17.60;85.50;;;;;;4973498;28;20410;-78
2022/05/06 16:17:02;;;;;;;5.30;2.67;;;17.40;87.60;;;;;;4973332;28;20200;-77
2022/05/06 16:19:27;;;;;;;4.97;2.47;;;17.30;86.50;;;;;;4966639;28;20918;-77
2022/05/06 16:21:55;;;;;;;3.90;3.13;;;17.20;87.60;;;;;;4944593;28;20453;-76
2022/05/06 16:24:20;;;;;;;7.13;2.63;;;17.20;86.90;;;;;;4967404;28;20178;-76
2022/05/06 16:26:45;;;;;;;3.73;2.50;;;17.40;87.90;;;;;;4941172;29;20954;-75
2022/05/06 16:29:11;;;;;;;3.20;2.20;;;17.50;86.10;;;;;;4973907;28;20260;-77
2022/05/06 22:31:15;;;;;;;10.23;4.40;;;6.20;96.30;;;;;;5716283;23;20488;-76
2022/05/06 22:36:25;;;;;;;8.70;5.17;;;6.20;96.30;;;;;;4974911;28;20191;-76
2022/05/06 22:38:50;;;;;;;10.37;5.97;;;6.30;96.30;;;;;;4974344;28;20537;-76
2022/05/06 22:46:44;;;;;;;14.90;6.70;;;6.20;96.30;;;;;;4975087;28;20408;-76
2022/05/06 22:49:10;;;;;;;14.20;7.20;;;6.10;96.30;;;;;;4974719;28;20461;-76
2022/05/06 22:51:35;;;;;;;9.90;5.33;;;6.00;96.30;;;;;;4974543;28;20196;-76
2022/05/06 22:54:01;;;;;;;11.23;5.57;;;5.90;96.30;;;;;;4974772;28;20170;-76
2022/05/06 22:56:26;;;;;;;16.40;9.13;;;6.00;96.30;;;;;;4957278;28;20174;-76
2022/05/06 22:58:52;;;;;;;11.77;6.60;;;6.00;96.30;;;;;;4956844;28;20205;-76
2022/05/06 23:01:20;;;;;;;10.43;5.90;;;6.10;96.30;;;;;;4974266;28;20202;-77
2022/05/06 23:03:46;;;;;;;7.50;4.40;;;6.10;96.30;;;;;;4974601;28;20174;-76
2022/05/06 23:06:11;;;;;;;7.90;5.03;;;6.20;96.30;;;;;;4957055;28;20421;-76
2022/05/06 23:08:37;;;;;;;7.60;4.87;;;6.30;96.30;;;;;;4956655;28;20461;-76
2022/05/06 23:11:02;;;;;;;7.30;4.70;;;6.30;96.30;;;;;;4974340;28;20528;-76
2022/05/06 23:13:28;;;;;;;12.90;4.60;;;6.20;96.30;;;;;;4957034;28;20269;-76
2022/05/06 23:15:53;;;;;;;11.50;6.70;;;6.10;96.30;;;;;;4974371;28;20485;-76
2022/05/06 23:18:19;;;;;;;11.70;6.53;;;6.00;96.30;;;;;;4973883;28;20646;-76
2022/05/06 23:20:44;;;;;;;10.13;6.27;;;5.80;96.30;;;;;;4973983;28;20190;-76
2022/05/06 23:23:10;;;;;;;14.50;6.70;;;5.80;96.30;;;;;;4974156;28;20177;-76
2022/05/06 23:25:36;;;;;;;12.70;5.00;;;5.70;96.30;;;;;;4973876;28;20180;-76
2022/05/06 23:28:01;;;;;;;13.00;4.10;;;5.70;96.30;;;;;;4956387;28;20209;-76
2022/05/06 23:30:27;;;;;;;8.20;4.60;;;5.70;96.30;;;;;;4956250;28;20217;-76
2022/05/06 23:32:52;;;;;;;5.30;3.63;;;5.80;96.30;;;;;;4955954;28;20289;-76
2022/05/06 23:35:18;;;;;;;7.77;4.43;;;5.70;96.30;;;;;;4956251;28;20619;-76
2022/05/06 23:37:43;;;;;;;11.03;4.77;;;5.70;96.30;;;;;;4956200;28;20178;-76
2022/05/06 23:40:10;;;;;;;6.57;4.03;;;5.70;96.30;;;;;;4956131;28;20179;-76
2022/05/06 23:42:35;;;;;;;8.67;5.27;;;5.70;96.30;;;;;;4973622;28;20281;-76
2022/05/06 23:45:02;;;;;;;8.33;5.63;;;5.70;96.30;;;;;;4973652;28;20445;-76
2022/05/06 23:47:29;;;;;;;15.83;9.37;;;5.60;96.30;;;;;;4973107;28;20424;-76
2022/05/06 23:49:55;;;;;;;14.93;7.90;;;5.50;96.30;;;;;;4973505;28;20405;-76
2022/05/06 23:52:21;;;;;;;19.70;8.40;;;5.50;96.30;;;;;;4956245;28;20441;-76
2022/05/06 23:54:47;;;;;;;21.80;11.20;;;5.40;96.30;;;;;;4973450;28;20464;-76
2022/05/06 23:57:13;;;;;;;15.40;7.93;;;5.40;96.30;;;;;;4973607;28;20405;-77
2022/05/06 23:59:39;;;;;;;14.50;9.10;;;5.40;96.30;;;;;;4973391;28;20193;-76
